sensor_id;sensor_type;location;lat;lon;timestamp;pressure;altitude;pressure_sealevel;temperature;humidity
45255;BME280;30989;52.078;21.014;2023-06-26T00:01:55;168031.31;;;16.26;85.83
45255;BME280;30989;52.078;21.014;2023-06-26T00:04:27;168027.28;;;16.25;85.97
45255;BME280;30989;52.078;21.014;2023-06-26T00:06:54;168024.59;;;16.24;85.86
45255;BME280;30989;52.078;21.014;2023-06-26T00:09:19;168004.44;;;16.16;85.86
45255;BME280;30989;52.078;21.014;2023-06-26T00:11:45;168005.78;;;16.17;86.16
45255;BME280;30989;52.078;21.014;2023-06-26T00:14:10;167980.25;;;16.07;86.60
45255;BME280;30989;52.078;21.014;2023-06-26T00:16:39;167986.97;;;16.09;86.29
45255;BME280;30989;52.078;21.014;2023-06-26T00:19:07;167984.28;;;16.08;86.06
45255;BME280;30989;52.078;21.014;2023-06-26T00:21:33;167976.22;;;16.05;85.89
45255;BME280;30989;52.078;21.014;2023-06-26T00:23:58;167993.69;;;16.12;85.60
45255;BME280;30989;52.078;21.014;2023-06-26T00:26:24;167997.72;;;16.14;85.42
45255;BME280;30989;52.078;21.014;2023-06-26T00:28:49;167999.06;;;16.14;85.22
45255;BME280;30989;52.078;21.014;2023-06-26T00:31:15;168009.81;;;16.18;85.63
45255;BME280;30989;52.078;21.014;2023-06-26T00:33:43;168001.75;;;16.15;85.33
45255;BME280;30989;52.078;21.014;2023-06-26T00:36:12;168004.44;;;16.16;85.39
45255;BME280;30989;52.078;21.014;2023-06-26T00:38:37;168011.16;;;16.19;85.39
45255;BME280;30989;52.078;21.014;2023-06-26T00:41:05;168001.75;;;16.15;85.32
45255;BME280;30989;52.078;21.014;2023-06-26T00:43:37;167997.72;;;16.14;85.90
45255;BME280;30989;52.078;21.014;2023-06-26T00:46:02;167969.50;;;16.03;86.43
45255;BME280;30989;52.078;21.014;2023-06-26T00:48:31;167954.72;;;15.97;86.57
45255;BME280;30989;52.078;21.014;2023-06-26T00:50:59;167942.63;;;15.93;87.20
45255;BME280;30989;52.078;21.014;2023-06-26T00:53:25;167922.47;;;15.85;88.16
45255;BME280;30989;52.078;21.014;2023-06-26T00:55:54;167905.00;;;15.78;87.96
45255;BME280;30989;52.078;21.014;2023-06-26T00:58:24;167894.25;;;15.74;88.46
45255;BME280;30989;52.078;21.014;2023-06-26T01:00:53;167882.16;;;15.70;88.57
45255;BME280;30989;52.078;21.014;2023-06-26T01:03:24;167866.06;;;15.64;89.18
45255;BME280;30989;52.078;21.014;2023-06-26T01:06:00;167849.88;;;15.58;89.58
45255;BME280;30989;52.078;21.014;2023-06-26T01:08:31;167840.44;;;15.54;90.30
45255;BME280;30989;52.078;21.014;2023-06-26T01:11:01;167840.44;;;15.54;89.96
45255;BME280;30989;52.078;21.014;2023-06-26T01:13:28;167828.34;;;15.49;90.34
45255;BME280;30989;52.078;21.014;2023-06-26T01:15:55;167800.13;;;15.39;90.30
45255;BME280;30989;52.078;21.014;2023-06-26T01:18:21;167796.09;;;15.37;91.03
45255;BME280;30989;52.078;21.014;2023-06-26T01:20:48;167805.50;;;15.41;90.89
45255;BME280;30989;52.078;21.014;2023-06-26T01:26:19;167777.28;;;15.30;91.61
45255;BME280;30989;52.078;21.014;2023-06-26T01:28:46;167761.16;;;15.24;92.36
45255;BME280;30989;52.078;21.014;2023-06-26T01:31:12;167755.78;;;15.22;92.69
45255;BME280;30989;52.078;21.014;2023-06-26T01:33:40;167735.66;;;15.14;92.96
45255;BME280;30989;52.078;21.014;2023-06-26T01:36:10;167722.22;;;15.09;93.30
45255;BME280;30989;52.078;21.014;2023-06-26T01:38:36;167706.09;;;15.03;93.56
45255;BME280;30989;52.078;21.014;2023-06-26T01:41:02;167695.34;;;14.99;93.62
45255;BME280;30989;52.078;21.014;2023-06-26T01:43:43;167673.88;;;14.91;93.90
45255;BME280;30989;52.078;21.014;2023-06-26T01:46:25;167647.03;;;14.81;94.46
45255;BME280;30989;52.078;21.014;2023-06-26T01:49:28;167647.03;;;14.81;94.91
45255;BME280;30989;52.078;21.014;2023-06-26T01:55:05;167628.22;;;14.74;95.43
45255;BME280;30989;52.078;21.014;2023-06-26T01:57:38;167617.47;;;14.70;95.48
45255;BME280;30989;52.078;21.014;2023-06-26T02:00:08;167598.69;;;14.63;95.60
45255;BME280;30989;52.078;21.014;2023-06-26T02:02:41;167612.09;;;14.68;96.24
45255;BME280;30989;52.078;21.014;2023-06-26T02:05:07;167601.38;;;14.64;95.65
45255;BME280;30989;52.078;21.014;2023-06-26T02:07:33;167600.03;;;14.63;96.38
45255;BME280;30989;52.078;21.014;2023-06-26T02:09:58;167604.06;;;14.65;96.66
45255;BME280;30989;52.078;21.014;2023-06-26T02:12:24;167601.38;;;14.64;97.16
45255;BME280;30989;52.078;21.014;2023-06-26T02:14:49;167593.31;;;14.61;97.21
45255;BME280;30989;52.078;21.014;2023-06-26T02:17:22;167582.56;;;14.57;97.60
45255;BME280;30989;52.078;21.014;2023-06-26T02:19:48;167528.81;;;14.36;98.01
45255;BME280;30989;52.078;21.014;2023-06-26T02:22:14;167558.41;;;14.47;98.14
45255;BME280;30989;52.078;21.014;2023-06-26T02:24:40;167557.06;;;14.47;98.30
45255;BME280;30989;52.078;21.014;2023-06-26T02:27:06;167547.66;;;14.43;99.07
45255;BME280;30989;52.078;21.014;2023-06-26T02:29:31;167540.91;;;14.41;98.37
45255;BME280;30989;52.078;21.014;2023-06-26T02:31:57;167531.50;;;14.37;98.87
45255;BME280;30989;52.078;21.014;2023-06-26T02:34:23;167531.50;;;14.37;98.68
45255;BME280;30989;52.078;21.014;2023-06-26T02:36:49;167527.47;;;14.36;99.10
45255;BME280;30989;52.078;21.014;2023-06-26T02:39:15;167515.41;;;14.31;99.34
45255;BME280;30989;52.078;21.014;2023-06-26T02:41:44;167526.13;;;14.35;99.74
45255;BME280;30989;52.078;21.014;2023-06-26T02:44:16;167531.50;;;14.37;99.50
45255;BME280;30989;52.078;21.014;2023-06-26T02:46:41;167514.03;;;14.31;99.86
45255;BME280;30989;52.078;21.014;2023-06-26T02:49:13;167527.47;;;14.36;99.80
45255;BME280;30989;52.078;21.014;2023-06-26T02:51:47;167539.56;;;14.40;100.00
45255;BME280;30989;52.078;21.014;2023-06-26T02:54:21;167536.88;;;14.39;100.00
45255;BME280;30989;52.078;21.014;2023-06-26T02:56:51;167526.13;;;14.35;100.00
45255;BME280;30989;52.078;21.014;2023-06-26T02:59:22;167530.16;;;14.37;100.00
45255;BME280;30989;52.078;21.014;2023-06-26T03:02:06;167506.00;;;14.28;100.00
45255;BME280;30989;52.078;21.014;2023-06-26T03:04:42;167510.03;;;14.29;100.00
45255;BME280;30989;52.078;21.014;2023-06-26T03:07:13;167512.72;;;14.30;100.00
45255;BME280;30989;52.078;21.014;2023-06-26T03:09:45;167515.41;;;14.31;100.00
45255;BME280;30989;52.078;21.014;2023-06-26T03:12:11;167523.44;;;14.34;100.00
45255;BME280;30989;52.078;21.014;2023-06-26T03:14:37;167535.53;;;14.39;100.00
45255;BME280;30989;52.078;21.014;2023-06-26T03:17:08;167547.66;;;14.43;100.00
45255;BME280;30989;52.078;21.014;2023-06-26T03:19:37;167577.19;;;14.55;100.00
45255;BME280;30989;52.078;21.014;2023-06-26T03:22:17;167587.94;;;14.59;100.00
45255;BME280;30989;52.078;21.014;2023-06-26T03:24:44;167589.28;;;14.59;100.00
45255;BME280;30989;52.078;21.014;2023-06-26T03:27:36;167604.06;;;14.65;100.00
45255;BME280;30989;52.078;21.014;2023-06-26T03:30:02;167616.13;;;14.69;100.00
45255;BME280;30989;52.078;21.014;2023-06-26T03:32:28;167613.44;;;14.68;100.00
45255;BME280;30989;52.078;21.014;2023-06-26T03:34:54;167613.44;;;14.68;100.00
45255;BME280;30989;52.078;21.014;2023-06-26T03:37:22;167609.41;;;14.67;100.00
45255;BME280;30989;52.078;21.014;2023-06-26T03:39:54;167656.41;;;14.84;100.00
45255;BME280;30989;52.078;21.014;2023-06-26T03:42:21;167672.53;;;14.91;100.00
45255;BME280;30989;52.078;21.014;2023-06-26T03:44:47;167698.03;;;15.00;100.00
45255;BME280;30989;52.078;21.014;2023-06-26T03:47:15;167708.78;;;15.04;100.00
45255;BME280;30989;52.078;21.014;2023-06-26T03:49:41;167737.00;;;15.15;100.00
45255;BME280;30989;52.078;21.014;2023-06-26T03:52:07;167751.78;;;15.21;100.00
45255;BME280;30989;52.078;21.014;2023-06-26T03:54:38;167778.63;;;15.31;100.00
45255;BME280;30989;52.078;21.014;2023-06-26T03:57:08;167800.13;;;15.39;100.00
45255;BME280;30989;52.078;21.014;2023-06-26T03:59:35;167828.34;;;15.49;100.00
45255;BME280;30989;52.078;21.014;2023-06-26T04:02:01;167862.03;;;15.62;100.00
45255;BME280;30989;52.078;21.014;2023-06-26T04:04:26;167896.94;;;15.75;99.77
45255;BME280;30989;52.078;21.014;2023-06-26T04:06:53;167926.50;;;15.87;98.98
45255;BME280;30989;52.078;21.014;2023-06-26T04:09:22;167952.03;;;15.96;98.66
45255;BME280;30989;52.078;21.014;2023-06-26T04:11:50;167980.25;;;16.07;98.16
45255;BME280;30989;52.078;21.014;2023-06-26T04:14:17;167995.03;;;16.13;98.16
45255;BME280;30989;52.078;21.014;2023-06-26T04:16:45;168008.47;;;16.18;97.81
45255;BME280;30989;52.078;21.014;2023-06-26T04:19:14;168023.25;;;16.23;97.59
45255;BME280;30989;52.078;21.014;2023-06-26T04:21:57;168038.03;;;16.29;97.61
45255;BME280;30989;52.078;21.014;2023-06-26T04:24:23;168039.38;;;16.29;97.67
45255;BME280;30989;52.078;21.014;2023-06-26T04:26:52;168063.56;;;16.38;97.73
45255;BME280;30989;52.078;21.014;2023-06-26T04:29:18;168083.75;;;16.46;97.83
45255;BME280;30989;52.078;21.014;2023-06-26T04:31:43;168109.28;;;16.56;97.72
45255;BME280;30989;52.078;21.014;2023-06-26T04:34:13;168136.22;;;16.66;97.15
45255;BME280;30989;52.078;21.014;2023-06-26T04:36:38;168156.38;;;16.73;96.80
45255;BME280;30989;52.078;21.014;2023-06-26T04:39:04;168169.81;;;16.79;96.66
45255;BME280;30989;52.078;21.014;2023-06-26T04:41:31;168208.81;;;16.93;96.30
45255;BME280;30989;52.078;21.014;2023-06-26T04:43:56;168235.69;;;17.03;96.31
45255;BME280;30989;52.078;21.014;2023-06-26T04:46:25;168277.38;;;17.19;95.98
45255;BME280;30989;52.078;21.014;2023-06-26T04:48:53;168315.03;;;17.33;96.29
45255;BME280;30989;52.078;21.014;2023-06-26T04:51:18;168351.34;;;17.47;96.70
45255;BME280;30989;52.078;21.014;2023-06-26T04:53:46;168383.63;;;17.59;96.56
45255;BME280;30989;52.078;21.014;2023-06-26T04:56:11;168411.91;;;17.70;96.26
45255;BME280;30989;52.078;21.014;2023-06-26T04:58:40;168445.53;;;17.83;95.83
45255;BME280;30989;52.078;21.014;2023-06-26T05:01:05;168485.91;;;17.98;94.18
45255;BME280;30989;52.078;21.014;2023-06-26T05:03:33;168515.50;;;18.09;93.50
45255;BME280;30989;52.078;21.014;2023-06-26T05:05:59;168546.44;;;18.21;92.86
45255;BME280;30989;52.078;21.014;2023-06-26T05:08:25;168574.69;;;18.31;92.63
45255;BME280;30989;52.078;21.014;2023-06-26T05:10:52;168601.59;;;18.42;91.55
45255;BME280;30989;52.078;21.014;2023-06-26T05:13:26;168639.28;;;18.56;91.10
45255;BME280;30989;52.078;21.014;2023-06-26T05:15:52;168663.56;;;18.65;90.09
45255;BME280;30989;52.078;21.014;2023-06-26T05:18:21;168689.13;;;18.75;89.47
45255;BME280;30989;52.078;21.014;2023-06-26T05:20:55;168705.28;;;18.81;89.46
45255;BME280;30989;52.078;21.014;2023-06-26T05:23:24;168737.56;;;18.93;88.72
45255;BME280;30989;52.078;21.014;2023-06-26T05:25:51;168760.47;;;19.02;88.75
45255;BME280;30989;52.078;21.014;2023-06-26T05:28:27;168790.06;;;19.13;87.87
45255;BME280;30989;52.078;21.014;2023-06-26T05:30:54;168819.69;;;19.24;87.72
45255;BME280;30989;52.078;21.014;2023-06-26T05:33:23;168847.94;;;19.35;87.31
45255;BME280;30989;52.078;21.014;2023-06-26T05:35:52;168852.00;;;19.36;86.13
45255;BME280;30989;52.078;21.014;2023-06-26T05:38:24;168881.63;;;19.47;85.84
45255;BME280;30989;52.078;21.014;2023-06-26T05:40:57;168907.25;;;19.57;84.71
45255;BME280;30989;52.078;21.014;2023-06-26T05:43:23;168926.09;;;19.64;84.38
45255;BME280;30989;52.078;21.014;2023-06-26T05:46:03;168947.63;;;19.72;83.58
45255;BME280;30989;52.078;21.014;2023-06-26T05:48:28;168978.59;;;19.84;83.39
45255;BME280;30989;52.078;21.014;2023-06-26T05:50:54;168992.06;;;19.89;82.71
45255;BME280;30989;52.078;21.014;2023-06-26T05:53:23;169017.66;;;19.99;82.17
45255;BME280;30989;52.078;21.014;2023-06-26T05:55:52;169051.31;;;20.11;82.59
45255;BME280;30989;52.078;21.014;2023-06-26T05:58:24;169064.78;;;20.16;82.84
45255;BME280;30989;52.078;21.014;2023-06-26T06:00:51;169105.19;;;20.32;82.82
45255;BME280;30989;52.078;21.014;2023-06-26T06:03:17;169125.47;;;20.39;81.89
45255;BME280;30989;52.078;21.014;2023-06-26T06:05:43;169145.66;;;20.47;80.80
45255;BME280;30989;52.078;21.014;2023-06-26T06:08:14;169176.66;;;20.58;80.50
45255;BME280;30989;52.078;21.014;2023-06-26T06:10:40;169195.50;;;20.66;79.61
45255;BME280;30989;52.078;21.014;2023-06-26T06:13:08;169231.88;;;20.79;79.04
45255;BME280;30989;52.078;21.014;2023-06-26T06:15:37;169248.09;;;20.85;78.63
45255;BME280;30989;52.078;21.014;2023-06-26T06:18:03;169258.88;;;20.89;78.20
45255;BME280;30989;52.078;21.014;2023-06-26T06:20:29;169292.56;;;21.02;77.12
45255;BME280;30989;52.078;21.014;2023-06-26T06:22:58;169333.00;;;21.17;74.95
45255;BME280;30989;52.078;21.014;2023-06-26T06:25:23;169353.25;;;21.25;75.52
45255;BME280;30989;52.078;21.014;2023-06-26T06:27:48;169399.06;;;21.42;74.90
45255;BME280;30989;52.078;21.014;2023-06-26T06:30:17;169426.03;;;21.52;74.48
45255;BME280;30989;52.078;21.014;2023-06-26T06:32:43;169447.59;;;21.61;73.83
45255;BME280;30989;52.078;21.014;2023-06-26T06:35:08;169461.06;;;21.66;73.31
45255;BME280;30989;52.078;21.014;2023-06-26T06:37:38;169485.34;;;21.75;73.40
45255;BME280;30989;52.078;21.014;2023-06-26T06:40:08;169477.25;;;21.72;73.40
45255;BME280;30989;52.078;21.014;2023-06-26T06:42:34;169540.59;;;21.96;73.16
45255;BME280;30989;52.078;21.014;2023-06-26T06:45:04;169573.00;;;22.08;72.27
45255;BME280;30989;52.078;21.014;2023-06-26T06:47:34;169614.81;;;22.24;71.35
45255;BME280;30989;52.078;21.014;2023-06-26T06:50:00;169626.94;;;22.28;69.66
45255;BME280;30989;52.078;21.014;2023-06-26T06:52:40;169659.31;;;22.40;66.54
45255;BME280;30989;52.078;21.014;2023-06-26T06:55:07;169686.28;;;22.50;66.88
45255;BME280;30989;52.078;21.014;2023-06-26T06:57:36;169702.44;;;22.57;67.39
45255;BME280;30989;52.078;21.014;2023-06-26T07:00:10;169738.88;;;22.70;67.13
45255;BME280;30989;52.078;21.014;2023-06-26T07:02:44;169771.28;;;22.82;66.81
45255;BME280;30989;52.078;21.014;2023-06-26T07:05:11;169771.28;;;22.82;65.84
45255;BME280;30989;52.078;21.014;2023-06-26T07:07:40;169795.56;;;22.92;65.87
45255;BME280;30989;52.078;21.014;2023-06-26T07:10:10;169827.94;;;23.04;64.91
45255;BME280;30989;52.078;21.014;2023-06-26T07:12:36;169856.25;;;23.14;63.29
45255;BME280;30989;52.078;21.014;2023-06-26T07:15:03;169876.47;;;23.22;63.80
45255;BME280;30989;52.078;21.014;2023-06-26T07:17:30;169889.97;;;23.27;61.25
45255;BME280;30989;52.078;21.014;2023-06-26T07:20:05;169894.03;;;23.29;61.76
45255;BME280;30989;52.078;21.014;2023-06-26T07:22:36;169902.13;;;23.32;59.89
45255;BME280;30989;52.078;21.014;2023-06-26T07:25:04;169923.69;;;23.40;60.29
45255;BME280;30989;52.078;21.014;2023-06-26T07:27:34;169939.88;;;23.46;57.48
45255;BME280;30989;52.078;21.014;2023-06-26T07:29:59;169943.94;;;23.47;58.10
45255;BME280;30989;52.078;21.014;2023-06-26T07:32:25;169961.53;;;23.54;57.41
45255;BME280;30989;52.078;21.014;2023-06-26T07:34:50;169980.41;;;23.61;58.82
45255;BME280;30989;52.078;21.014;2023-06-26T07:37:16;169992.56;;;23.66;58.70
45255;BME280;30989;52.078;21.014;2023-06-26T07:39:41;170000.66;;;23.69;57.64
45255;BME280;30989;52.078;21.014;2023-06-26T07:42:07;170008.75;;;23.72;58.02
45255;BME280;30989;52.078;21.014;2023-06-26T07:44:32;170027.66;;;23.79;58.01
45255;BME280;30989;52.078;21.014;2023-06-26T07:46:57;170047.88;;;23.87;57.95
45255;BME280;30989;52.078;21.014;2023-06-26T07:49:23;170061.38;;;23.92;57.77
45255;BME280;30989;52.078;21.014;2023-06-26T07:51:48;170078.91;;;23.98;57.23
45255;BME280;30989;52.078;21.014;2023-06-26T07:54:17;170097.81;;;24.05;54.58
45255;BME280;30989;52.078;21.014;2023-06-26T07:56:59;170112.66;;;24.11;55.82
45255;BME280;30989;52.078;21.014;2023-06-26T07:59:29;170128.84;;;24.17;55.53
45255;BME280;30989;52.078;21.014;2023-06-26T08:01:56;170141.00;;;24.22;56.42
45255;BME280;30989;52.078;21.014;2023-06-26T08:04:24;170162.66;;;24.30;55.92
45255;BME280;30989;52.078;21.014;2023-06-26T08:06:54;170193.69;;;24.41;54.93
45255;BME280;30989;52.078;21.014;2023-06-26T08:09:25;170219.31;;;24.51;54.38
45255;BME280;30989;52.078;21.014;2023-06-26T08:11:51;170236.88;;;24.58;54.08
45255;BME280;30989;52.078;21.014;2023-06-26T08:14:17;170249.03;;;24.62;51.83
45255;BME280;30989;52.078;21.014;2023-06-26T08:16:43;170270.63;;;24.70;52.98
45255;BME280;30989;52.078;21.014;2023-06-26T08:19:10;170294.94;;;24.80;52.41
45255;BME280;30989;52.078;21.014;2023-06-26T08:21:35;170307.06;;;24.84;52.47
45255;BME280;30989;52.078;21.014;2023-06-26T08:24:01;170346.28;;;24.99;51.68
45255;BME280;30989;52.078;21.014;2023-06-26T08:26:27;170367.88;;;25.07;50.95
45255;BME280;30989;52.078;21.014;2023-06-26T08:28:53;170361.13;;;25.04;50.50
45255;BME280;30989;52.078;21.014;2023-06-26T08:31:18;170371.94;;;25.09;51.00
45255;BME280;30989;52.078;21.014;2023-06-26T08:33:44;170378.69;;;25.11;50.79
45255;BME280;30989;52.078;21.014;2023-06-26T08:36:09;170424.59;;;25.28;50.03
45255;BME280;30989;52.078;21.014;2023-06-26T08:38:35;170444.84;;;25.36;47.35
45255;BME280;30989;52.078;21.014;2023-06-26T08:41:03;170442.13;;;25.35;46.96
45255;BME280;30989;52.078;21.014;2023-06-26T08:43:28;170439.44;;;25.34;48.16
45255;BME280;30989;52.078;21.014;2023-06-26T08:45:54;170439.44;;;25.34;45.79
45255;BME280;30989;52.078;21.014;2023-06-26T08:48:20;170458.34;;;25.41;48.71
45255;BME280;30989;52.078;21.014;2023-06-26T08:50:48;170500.22;;;25.57;47.86
45255;BME280;30989;52.078;21.014;2023-06-26T08:56:10;170581.28;;;25.87;45.79
45255;BME280;30989;52.078;21.014;2023-06-26T08:58:36;170574.53;;;25.85;43.52
45255;BME280;30989;52.078;21.014;2023-06-26T09:01:04;170597.50;;;25.93;43.93
45255;BME280;30989;52.078;21.014;2023-06-26T09:03:30;170635.38;;;26.08;43.21
45255;BME280;30989;52.078;21.014;2023-06-26T09:05:56;170634.03;;;26.07;40.99
45255;BME280;30989;52.078;21.014;2023-06-26T09:08:25;170605.59;;;25.96;42.95
45255;BME280;30989;52.078;21.014;2023-06-26T09:10:51;170621.88;;;26.02;43.27
45255;BME280;30989;52.078;21.014;2023-06-26T09:13:18;170638.06;;;26.09;43.50
45255;BME280;30989;52.078;21.014;2023-06-26T09:15:45;170651.59;;;26.14;43.23
45255;BME280;30989;52.078;21.014;2023-06-26T09:18:11;170670.50;;;26.21;44.16
45255;BME280;30989;52.078;21.014;2023-06-26T09:20:37;170715.13;;;26.38;44.19
45255;BME280;30989;52.078;21.014;2023-06-26T09:23:03;170751.59;;;26.51;43.39
45255;BME280;30989;52.078;21.014;2023-06-26T09:25:29;170759.72;;;26.54;43.58
45255;BME280;30989;52.078;21.014;2023-06-26T09:27:55;170770.53;;;26.58;43.70
45255;BME280;30989;52.078;21.014;2023-06-26T09:30:21;170765.13;;;26.56;43.09
45255;BME280;30989;52.078;21.014;2023-06-26T09:32:47;170785.38;;;26.64;44.20
45255;BME280;30989;52.078;21.014;2023-06-26T09:35:13;170807.00;;;26.72;42.93
45255;BME280;30989;52.078;21.014;2023-06-26T09:37:39;170797.53;;;26.69;39.86
45255;BME280;30989;52.078;21.014;2023-06-26T09:40:05;170784.03;;;26.63;42.03
45255;BME280;30989;52.078;21.014;2023-06-26T09:42:31;170802.94;;;26.71;42.71
45255;BME280;30989;52.078;21.014;2023-06-26T09:44:56;170792.16;;;26.67;40.32
45255;BME280;30989;52.078;21.014;2023-06-26T09:47:22;170789.44;;;26.65;41.14
45255;BME280;30989;52.078;21.014;2023-06-26T09:49:47;170807.00;;;26.72;41.77
45255;BME280;30989;52.078;21.014;2023-06-26T09:52:14;170786.72;;;26.64;42.00
45255;BME280;30989;52.078;21.014;2023-06-26T09:54:42;170755.66;;;26.53;41.46
45255;BME280;30989;52.078;21.014;2023-06-26T09:57:16;170759.72;;;26.54;41.04
45255;BME280;30989;52.078;21.014;2023-06-26T09:59:44;170762.41;;;26.55;41.34
45255;BME280;30989;52.078;21.014;2023-06-26T10:02:13;170767.81;;;26.57;41.10
45255;BME280;30989;52.078;21.014;2023-06-26T10:04:41;170765.13;;;26.56;40.40
45255;BME280;30989;52.078;21.014;2023-06-26T10:07:10;170773.22;;;26.59;41.59
45255;BME280;30989;52.078;21.014;2023-06-26T10:09:46;170823.22;;;26.78;41.53
45255;BME280;30989;52.078;21.014;2023-06-26T10:12:43;170862.41;;;26.93;41.59
45255;BME280;30989;52.078;21.014;2023-06-26T10:15:12;170908.41;;;27.10;40.26
45255;BME280;30989;52.078;21.014;2023-06-26T10:17:46;170930.03;;;27.18;40.35
45255;BME280;30989;52.078;21.014;2023-06-26T10:20:13;170927.31;;;27.17;39.90
45255;BME280;30989;52.078;21.014;2023-06-26T10:22:46;170924.63;;;27.16;40.75
45255;BME280;30989;52.078;21.014;2023-06-26T10:25:19;170944.88;;;27.24;40.59
45255;BME280;30989;52.078;21.014;2023-06-26T10:27:50;170974.63;;;27.35;40.32
45255;BME280;30989;52.078;21.014;2023-06-26T10:30:20;171016.53;;;27.51;40.53
45255;BME280;30989;52.078;21.014;2023-06-26T10:32:48;171070.66;;;27.71;41.01
45255;BME280;30989;52.078;21.014;2023-06-26T10:35:14;171078.75;;;27.74;39.38
45255;BME280;30989;52.078;21.014;2023-06-26T10:37:44;171085.53;;;27.77;38.80
45255;BME280;30989;52.078;21.014;2023-06-26T10:40:12;171123.38;;;27.91;39.08
45255;BME280;30989;52.078;21.014;2023-06-26T10:42:41;171158.53;;;28.04;38.56
45255;BME280;30989;52.078;21.014;2023-06-26T10:45:13;171178.81;;;28.12;38.31
45255;BME280;30989;52.078;21.014;2023-06-26T10:47:40;171203.13;;;28.21;38.00
45255;BME280;30989;52.078;21.014;2023-06-26T10:50:32;171246.47;;;28.37;37.49
45255;BME280;30989;52.078;21.014;2023-06-26T10:55:51;171357.34;;;28.79;37.89
45255;BME280;30989;52.078;21.014;2023-06-26T11:03:36;171512.94;;;29.37;37.42
45255;BME280;30989;52.078;21.014;2023-06-26T11:06:12;171525.13;;;29.42;36.08
45255;BME280;30989;52.078;21.014;2023-06-26T11:11:13;171540.06;;;29.47;34.89
45255;BME280;30989;52.078;21.014;2023-06-26T11:13:40;171533.28;;;29.45;35.58
45255;BME280;30989;52.078;21.014;2023-06-26T11:16:05;171507.53;;;29.35;35.35
45255;BME280;30989;52.078;21.014;2023-06-26T11:18:31;171526.53;;;29.42;35.68
45255;BME280;30989;52.078;21.014;2023-06-26T11:21:10;171489.94;;;29.29;35.56
45255;BME280;30989;52.078;21.014;2023-06-26T11:23:37;171452.06;;;29.14;35.62
45255;BME280;30989;52.078;21.014;2023-06-26T11:26:16;171374.97;;;28.85;35.08
45255;BME280;30989;52.078;21.014;2023-06-26T11:28:55;171412.84;;;29.00;36.47
45255;BME280;30989;52.078;21.014;2023-06-26T11:31:28;171514.31;;;29.38;35.47
45255;BME280;30989;52.078;21.014;2023-06-26T11:34:01;171576.59;;;29.61;33.87
45255;BME280;30989;52.078;21.014;2023-06-26T11:36:28;171630.72;;;29.81;34.72
45255;BME280;30989;52.078;21.014;2023-06-26T11:39:00;171688.94;;;30.03;33.37
45255;BME280;30989;52.078;21.014;2023-06-26T11:41:29;171682.16;;;30.01;33.56
45255;BME280;30989;52.078;21.014;2023-06-26T11:43:59;171778.25;;;30.37;33.64
45255;BME280;30989;52.078;21.014;2023-06-26T11:46:25;171755.25;;;30.28;32.71
45255;BME280;30989;52.078;21.014;2023-06-26T11:48:54;171749.84;;;30.26;32.88
45255;BME280;30989;52.078;21.014;2023-06-26T11:51:20;171867.63;;;30.70;34.22
45255;BME280;30989;52.078;21.014;2023-06-26T11:53:46;172066.72;;;31.45;33.11
45255;BME280;30989;52.078;21.014;2023-06-26T11:56:14;172226.56;;;32.05;31.93
45255;BME280;30989;52.078;21.014;2023-06-26T11:59:17;172339.03;;;32.47;31.33
45255;BME280;30989;52.078;21.014;2023-06-26T12:01:49;172447.44;;;32.88;30.31
45255;BME280;30989;52.078;21.014;2023-06-26T12:04:16;172493.50;;;33.05;29.06
45255;BME280;30989;52.078;21.014;2023-06-26T12:06:46;172398.63;;;32.69;27.44
45255;BME280;30989;52.078;21.014;2023-06-26T12:09:13;172221.16;;;32.03;28.43
45255;BME280;30989;52.078;21.014;2023-06-26T12:11:41;172054.53;;;31.40;28.98
45255;BME280;30989;52.078;21.014;2023-06-26T12:14:08;172059.97;;;31.42;29.17
45255;BME280;30989;52.078;21.014;2023-06-26T12:16:34;172226.56;;;32.05;29.49
45255;BME280;30989;52.078;21.014;2023-06-26T12:19:04;172397.28;;;32.69;28.02
45255;BME280;30989;52.078;21.014;2023-06-26T12:24:13;172744.28;;;33.99;27.28
45255;BME280;30989;52.078;21.014;2023-06-26T12:26:47;172755.13;;;34.03;25.30
45255;BME280;30989;52.078;21.014;2023-06-26T12:29:16;172745.66;;;34.00;25.92
45255;BME280;30989;52.078;21.014;2023-06-26T12:31:49;172848.72;;;34.38;25.80
45255;BME280;30989;52.078;21.014;2023-06-26T12:34:27;172931.41;;;34.69;25.17
45255;BME280;30989;52.078;21.014;2023-06-26T12:36:53;172993.81;;;34.93;25.04
45255;BME280;30989;52.078;21.014;2023-06-26T12:39:21;173064.31;;;35.19;23.55
45255;BME280;30989;52.078;21.014;2023-06-26T12:44:27;173160.63;;;35.55;23.37
45255;BME280;30989;52.078;21.014;2023-06-26T12:46:56;173258.31;;;35.92;23.84
45255;BME280;30989;52.078;21.014;2023-06-26T12:49:29;173365.53;;;36.32;23.64
45255;BME280;30989;52.078;21.014;2023-06-26T12:51:55;173452.38;;;36.64;23.03
45255;BME280;30989;52.078;21.014;2023-06-26T12:54:21;173436.09;;;36.58;23.47
45255;BME280;30989;52.078;21.014;2023-06-26T12:56:46;173438.81;;;36.59;23.82
45255;BME280;30989;52.078;21.014;2023-06-26T12:59:11;173370.94;;;36.34;21.84
45255;BME280;30989;52.078;21.014;2023-06-26T13:01:37;173273.25;;;35.97;23.84
45255;BME280;30989;52.078;21.014;2023-06-26T13:04:02;173202.66;;;35.71;23.79
45255;BME280;30989;52.078;21.014;2023-06-26T13:06:29;173229.84;;;35.81;23.49
45255;BME280;30989;52.078;21.014;2023-06-26T13:08:54;173341.06;;;36.23;24.06
45255;BME280;30989;52.078;21.014;2023-06-26T13:11:20;173446.97;;;36.62;22.55